createdAt,value
2023-01-23T00:01:29.395Z,101674.09
2023-01-23T00:03:56.436Z,101676.40
2023-01-23T00:06:25.073Z,101679.87
2023-01-23T00:08:52.092Z,101673.89
2023-01-23T00:11:23.946Z,101674.38
2023-01-23T00:13:51.545Z,101676.21
2023-01-23T00:16:23.382Z,101677.67
2023-01-23T00:18:50.324Z,101678.61
2023-01-23T00:21:19.191Z,101674.91
2023-01-23T00:23:48.723Z,101670.27
2023-01-23T00:26:17.742Z,101670.21
2023-01-23T00:28:45.825Z,101667.69
2023-01-23T00:31:19.541Z,101669.65
2023-01-23T00:33:54.014Z,101667.89
2023-01-23T00:36:23.390Z,101674.10
2023-01-23T00:38:50.262Z,101675.64
2023-01-23T00:41:17.295Z,101677.27
2023-01-23T00:43:45.091Z,101676.96
2023-01-23T00:46:12.514Z,101676.68
2023-01-23T00:48:40.078Z,101679.16
2023-01-23T00:51:06.959Z,101679.92
2023-01-23T00:53:33.803Z,101678.80
2023-01-23T00:56:00.694Z,101678.05
2023-01-23T00:58:27.550Z,101679.10
2023-01-23T01:00:56.032Z,101677.57
2023-01-23T01:03:25.334Z,101676.85
2023-01-23T01:05:52.407Z,101680.22
2023-01-23T01:08:19.194Z,101677.42
2023-01-23T01:10:46.082Z,101675.43
2023-01-23T01:13:13.162Z,101677.77
2023-01-23T01:15:39.993Z,101677.07
2023-01-23T01:18:06.996Z,101676.92
2023-01-23T01:20:34.331Z,101677.89
2023-01-23T01:23:01.229Z,101681.86
2023-01-23T01:25:28.315Z,101676.48
2023-01-23T01:27:56.133Z,101678.85
2023-01-23T01:30:25.514Z,101677.27
2023-01-23T01:32:53.968Z,101677.15
2023-01-23T01:35:21.019Z,101679.36
2023-01-23T01:37:48.000Z,101678.73
2023-01-23T01:40:18.880Z,101672.48
2023-01-23T01:42:48.855Z,101672.23
2023-01-23T01:46:49.392Z,101663.36
2023-01-23T01:49:32.256Z,101666.17
2023-01-23T01:52:05.996Z,101659.30
2023-01-23T01:54:48.859Z,101660.23
2023-01-23T01:57:35.833Z,101656.95
2023-01-23T02:00:09.114Z,101656.95
2023-01-23T02:02:49.670Z,101656.45
2023-01-23T04:11:12.348Z,101688.24
2023-01-23T04:13:39.454Z,101693.04
2023-01-23T04:16:06.579Z,101692.50
2023-01-23T04:18:33.695Z,101689.20
2023-01-23T04:21:00.572Z,101692.86
2023-01-23T04:23:27.526Z,101689.07
2023-01-23T04:25:54.529Z,101693.46
2023-01-23T04:28:21.724Z,101692.65
2023-01-23T04:30:51.289Z,101693.89
2023-01-23T04:33:23.211Z,101698.85
2023-01-23T04:36:10.469Z,101698.28
2023-01-23T04:38:37.437Z,101702.08
2023-01-23T04:41:25.946Z,101706.78
2023-01-23T04:44:20.486Z,101707.81
2023-01-23T04:47:10.579Z,101710.42
2023-01-23T04:49:38.923Z,101701.41
2023-01-23T04:52:05.786Z,101706.20
2023-01-23T04:54:36.089Z,101706.02
2023-01-23T04:57:02.988Z,101707.44
2023-01-23T04:59:30.188Z,101710.02
2023-01-23T05:01:57.097Z,101712.00
2023-01-23T05:04:24.212Z,101712.29
2023-01-23T05:06:51.211Z,101713.23
2023-01-23T05:09:18.316Z,101715.21
2023-01-23T05:11:50.331Z,101715.24
2023-01-23T05:14:17.888Z,101719.34
2023-01-23T05:16:44.897Z,101725.27
2023-01-23T05:19:18.091Z,101736.86
2023-01-23T05:21:45.046Z,101736.91
2023-01-23T05:24:17.337Z,101736.94
2023-01-23T05:26:44.501Z,101743.89
2023-01-23T05:29:11.381Z,101738.11
2023-01-23T05:31:45.846Z,101742.70
2023-01-23T05:34:31.252Z,101743.40
2023-01-23T05:36:58.738Z,101748.79
2023-01-23T05:39:25.591Z,101748.23
2023-01-23T05:41:52.540Z,101748.33
2023-01-23T05:44:37.967Z,101748.86
2023-01-23T05:47:11.498Z,101747.77
2023-01-23T05:49:38.387Z,101750.26
2023-01-23T05:52:05.824Z,101751.23
2023-01-23T05:54:33.926Z,101748.65
2023-01-23T05:57:00.830Z,101751.08
2023-01-23T06:02:25.344Z,101753.48
2023-01-23T06:05:27.603Z,101757.87
2023-01-23T06:08:02.575Z,101760.11
2023-01-23T06:10:30.492Z,101759.20
2023-01-23T06:12:57.708Z,101758.30
2023-01-23T06:15:24.776Z,101766.01
2023-01-23T06:17:53.777Z,101764.05
2023-01-23T06:20:21.532Z,101770.19
2023-01-23T06:22:49.219Z,101766.93
2023-01-23T06:25:16.273Z,101770.46
2023-01-23T06:27:43.481Z,101773.33
2023-01-23T06:30:12.961Z,101773.64
2023-01-23T06:32:41.674Z,101776.79
2023-01-23T06:35:09.430Z,101775.17
2023-01-23T06:37:38.893Z,101777.05
2023-01-23T06:40:07.152Z,101775.04
2023-01-23T06:42:34.396Z,101779.52
2023-01-23T06:45:02.125Z,101781.90
2023-01-23T06:47:30.202Z,101783.27
2023-01-23T06:50:00.464Z,101783.25
2023-01-23T06:52:28.897Z,101790.55
2023-01-23T06:54:56.262Z,101787.65
2023-01-23T06:57:23.380Z,101790.37
2023-01-23T06:59:50.601Z,101788.61
2023-01-23T07:02:19.109Z,101792.53
2023-01-23T07:04:49.278Z,101789.75
2023-01-23T07:07:17.509Z,101791.15
2023-01-23T07:09:45.569Z,101797.73
2023-01-23T07:12:20.899Z,101797.47
2023-01-23T07:14:47.904Z,101797.98
2023-01-23T07:17:18.841Z,101798.66
2023-01-23T07:19:46.394Z,101803.61
2023-01-23T07:22:19.904Z,101804.08
2023-01-23T07:24:47.872Z,101803.72
2023-01-23T07:27:15.452Z,101805.30
2023-01-23T07:29:42.610Z,101806.04
2023-01-23T07:32:11.218Z,101809.13
2023-01-23T07:34:38.319Z,101812.77
2023-01-23T07:37:05.180Z,101810.35
2023-01-23T07:39:32.434Z,101813.74
2023-01-23T07:41:59.323Z,101815.77
2023-01-23T07:44:28.143Z,101819.00
2023-01-23T07:46:55.047Z,101817.63
2023-01-23T07:49:21.902Z,101822.58
2023-01-23T07:51:48.818Z,101822.36
2023-01-23T07:54:15.814Z,101825.11
2023-01-23T07:56:42.718Z,101829.77
2023-01-23T07:59:09.541Z,101829.96
2023-01-23T08:01:36.646Z,101834.96
2023-01-23T08:04:03.582Z,101834.58
2023-01-23T08:13:38.971Z,101842.85
2023-01-23T08:16:07.257Z,101839.51
2023-01-23T08:18:34.512Z,101841.65
2023-01-23T08:21:03.370Z,101846.20
2023-01-23T08:23:32.102Z,101850.00
2023-01-23T08:26:00.888Z,101851.98
2023-01-23T08:28:28.116Z,101850.90
2023-01-23T08:30:55.356Z,101851.15
2023-01-23T08:33:23.043Z,101849.15
2023-01-23T08:35:51.662Z,101850.14
2023-01-23T08:38:21.574Z,101852.42
2023-01-23T08:47:37.147Z,101846.44
2023-01-23T08:50:05.267Z,101846.45
2023-01-23T08:52:32.106Z,101845.93
2023-01-23T08:54:59.174Z,101848.61
2023-01-23T08:57:26.179Z,101847.19
2023-01-23T08:59:52.974Z,101845.95
2023-01-23T09:02:19.907Z,101846.52
2023-01-23T09:21:59.735Z,101849.83
2023-01-23T09:24:26.598Z,101849.36
2023-01-23T09:26:53.386Z,101846.73
2023-01-23T09:29:20.414Z,101851.93
2023-01-23T09:31:47.422Z,101850.14
2023-01-23T09:34:16.955Z,101849.41
2023-01-23T09:36:45.118Z,101846.20
2023-01-23T09:39:12.405Z,101846.73
2023-01-23T09:41:39.846Z,101847.42
2023-01-23T09:44:20.164Z,101845.50
2023-01-23T09:46:52.900Z,101844.86
2023-01-23T09:49:27.546Z,101844.30
2023-01-23T09:52:11.292Z,101843.48
2023-01-23T09:54:46.750Z,101842.65
2023-01-23T09:57:19.756Z,101841.80
2023-01-23T10:00:00.147Z,101842.52
2023-01-23T14:43:42.955Z,101823.54
2023-01-23T14:46:16.206Z,101826.44
2023-01-23T14:48:44.483Z,101829.82
2023-01-23T14:51:20.327Z,101825.40
2023-01-23T14:53:56.234Z,101829.85
2023-01-23T14:56:36.135Z,101827.52
2023-01-23T14:59:05.751Z,101821.05
2023-01-23T15:01:35.935Z,101820.60
2023-01-23T15:04:05.522Z,101820.63
2023-01-23T15:06:34.289Z,101826.75
2023-01-23T15:09:09.281Z,101826.66
2023-01-23T15:11:36.131Z,101823.17
2023-01-23T15:14:04.647Z,101825.65
2023-01-23T15:16:35.122Z,101832.59
2023-01-23T15:19:27.926Z,101832.59
2023-01-23T15:22:20.593Z,101834.69
2023-01-23T15:24:48.342Z,101837.11
2023-01-23T15:27:36.441Z,101838.45
2023-01-23T15:30:36.904Z,101841.91
2023-01-23T15:33:14.181Z,101840.82
2023-01-23T15:35:41.606Z,101844.73
2023-01-23T15:38:20.170Z,101845.31
2023-01-23T15:40:50.864Z,101844.61
2023-01-23T15:43:21.520Z,101845.84
2023-01-23T15:45:50.559Z,101846.41
2023-01-23T15:48:21.484Z,101850.27
2023-01-23T15:50:58.843Z,101853.56
2023-01-23T15:53:35.886Z,101854.95
2023-01-23T15:56:07.419Z,101856.52
2023-01-23T15:58:40.005Z,101855.64
2023-01-23T16:01:09.447Z,101857.45
2023-01-23T16:03:38.270Z,101856.01
2023-01-23T16:06:07.016Z,101859.19
2023-01-23T16:08:37.522Z,101858.23
2023-01-23T16:11:38.007Z,101859.73
2023-01-23T16:14:09.215Z,101854.14
2023-01-23T16:16:39.001Z,101854.55
2023-01-23T16:19:38.715Z,101858.13
2023-01-23T16:22:11.942Z,101854.38
2023-01-23T16:27:28.669Z,101854.04
2023-01-23T16:30:01.074Z,101854.95
2023-01-23T16:32:30.313Z,101858.58
2023-01-23T16:35:06.084Z,101856.95
2023-01-23T16:37:36.914Z,101859.96
2023-01-23T16:40:08.103Z,101860.35
2023-01-23T16:42:39.113Z,101861.58
2023-01-23T16:45:17.769Z,101863.02
2023-01-23T16:47:49.691Z,101865.01
2023-01-23T16:50:24.296Z,101870.10
2023-01-23T16:53:22.440Z,101869.55
2023-01-23T16:55:55.426Z,101867.54
2023-01-23T16:58:37.314Z,101871.37
2023-01-23T17:01:22.965Z,101869.84
2023-01-23T17:04:04.749Z,101871.20
2023-01-23T17:06:34.157Z,101869.89
2023-01-23T17:09:03.814Z,101869.60
2023-01-23T17:11:38.148Z,101873.33
2023-01-23T17:14:09.721Z,101875.69
2023-01-23T17:16:40.652Z,101875.45
2023-01-23T17:19:18.441Z,101880.55
2023-01-23T17:21:53.422Z,101877.71
2023-01-23T17:24:43.604Z,101880.61
2023-01-23T17:27:12.356Z,101880.66
2023-01-23T17:29:41.070Z,101879.29
2023-01-23T17:32:59.892Z,101885.73
2023-01-23T17:35:34.218Z,101885.09
2023-01-23T17:38:04.540Z,101881.36
2023-01-23T22:01:07.439Z,101850.70
2023-01-23T22:03:38.414Z,101852.67
2023-01-23T22:06:06.642Z,101852.26
2023-01-23T22:08:34.919Z,101849.41
2023-01-23T22:11:07.290Z,101851.41
2023-01-23T22:13:35.968Z,101850.70
2023-01-23T22:16:04.395Z,101847.24
2023-01-23T22:18:37.614Z,101845.53
2023-01-23T22:21:06.239Z,101846.52
2023-01-23T22:23:34.970Z,101845.97
2023-01-23T22:26:06.906Z,101848.10
2023-01-23T22:28:35.967Z,101851.61
2023-01-23T22:31:10.995Z,101850.83
2023-01-23T22:33:40.878Z,101850.45
2023-01-23T22:36:11.369Z,101848.27
2023-01-23T22:38:39.701Z,101846.24
2023-01-23T22:41:07.905Z,101845.62
2023-01-23T22:43:37.725Z,101846.65
2023-01-23T22:46:07.803Z,101843.59
2023-01-23T22:48:36.000Z,101843.89
2023-01-23T22:51:11.669Z,101842.48
2023-01-23T22:53:40.028Z,101842.69
2023-01-23T22:56:08.733Z,101845.91
2023-01-23T22:58:36.790Z,101846.56
2023-01-23T23:01:05.247Z,101846.09
2023-01-23T23:03:34.466Z,101846.55
2023-01-23T23:06:04.832Z,101850.46
2023-01-23T23:08:35.649Z,101849.34
2023-01-23T23:11:05.586Z,101851.62
2023-01-23T23:13:36.141Z,101853.90
2023-01-23T23:16:09.440Z,101854.09
2023-01-23T23:18:39.197Z,101851.70
2023-01-23T23:21:11.628Z,101856.20
2023-01-23T23:23:40.016Z,101858.27
2023-01-23T23:26:09.293Z,101854.09
2023-01-23T23:28:38.193Z,101856.14
2023-01-23T23:31:08.403Z,101858.80
2023-01-23T23:33:36.780Z,101857.98
2023-01-23T23:36:05.935Z,101861.67
2023-01-23T23:38:34.152Z,101861.52
2023-01-23T23:41:06.942Z,101862.20
2023-01-23T23:43:38.040Z,101860.20
